createdAt,value
2019-02-09T00:01:51.370Z,-1.07
2019-02-09T00:04:21.123Z,-1.08
2019-02-09T00:06:50.933Z,-1.14
2019-02-09T00:09:21.852Z,-1.18
2019-02-09T00:11:51.636Z,-1.21
2019-02-09T00:14:21.314Z,-1.23
2019-02-09T00:16:51.140Z,-1.27
2019-02-09T00:19:20.921Z,-1.29
2019-02-09T00:21:50.703Z,-1.33
2019-02-09T00:24:20.481Z,-1.43
2019-02-09T00:26:50.314Z,-1.44
2019-02-09T00:29:20.055Z,-1.41
2019-02-09T00:31:49.833Z,-1.43
2019-02-09T00:34:19.513Z,-1.44
2019-02-09T00:36:49.278Z,-1.47
2019-02-09T00:39:19.062Z,-1.44
2019-02-09T00:41:48.885Z,-1.42
2019-02-09T00:44:18.668Z,-1.39
2019-02-09T00:46:48.475Z,-1.36
2019-02-09T00:49:18.236Z,-1.33
2019-02-09T00:51:48.019Z,-1.37
2019-02-09T00:54:17.792Z,-1.40
2019-02-09T00:56:47.660Z,-1.47
2019-02-09T00:59:20.573Z,-1.49
2019-02-09T01:01:50.555Z,-1.50
2019-02-09T01:04:20.338Z,-1.54
2019-02-09T01:06:50.096Z,-1.59
2019-02-09T01:09:19.963Z,-1.62
2019-02-09T01:11:49.914Z,-1.65
2019-02-09T01:14:19.874Z,-1.75
2019-02-09T01:16:49.654Z,-1.79
2019-02-09T01:19:19.278Z,-1.78
2019-02-09T01:21:49.095Z,-1.80
2019-02-09T01:24:42.061Z,-1.81
2019-02-09T01:27:12.002Z,-1.80
2019-02-09T01:29:41.789Z,-1.85
2019-02-09T01:32:11.539Z,-1.71
2019-02-09T01:34:41.323Z,-1.65
2019-02-09T01:37:11.933Z,-1.62
2019-02-09T01:39:41.723Z,-1.60
2019-02-09T01:42:11.481Z,-1.53
2019-02-09T01:44:41.255Z,-1.53
2019-02-09T01:47:11.063Z,-1.36
2019-02-09T01:49:40.884Z,-1.37
2019-02-09T01:52:10.673Z,-1.40
2019-02-09T01:54:40.439Z,-1.43
2019-02-09T01:57:10.253Z,-1.40
2019-02-09T01:59:40.020Z,-1.42
2019-02-09T02:02:09.938Z,-1.42
2019-02-09T02:04:39.735Z,-1.37
2019-02-09T02:07:09.727Z,-1.35
2019-02-09T02:09:39.458Z,-1.37
2019-02-09T02:12:09.356Z,-1.37
2019-02-09T02:14:39.138Z,-1.24
2019-02-09T02:17:09.109Z,-1.24
2019-02-09T02:19:38.899Z,-1.24
2019-02-09T02:22:08.643Z,-1.27
2019-02-09T02:24:38.436Z,-1.28
2019-02-09T02:27:08.214Z,-1.24
2019-02-09T02:29:38.771Z,-1.06
2019-02-09T02:32:08.522Z,-1.18
2019-02-09T02:34:38.275Z,-1.21
2019-02-09T02:37:08.078Z,-1.27
2019-02-09T02:39:37.855Z,-1.30
2019-02-09T02:42:07.802Z,-1.30
2019-02-09T02:44:37.642Z,-1.31
2019-02-09T02:47:07.438Z,-1.32
2019-02-09T02:49:37.244Z,-1.37
2019-02-09T02:52:07.013Z,-1.37
2019-02-09T02:54:36.816Z,-1.45
2019-02-09T02:57:06.601Z,-1.47
2019-02-09T02:59:36.478Z,-1.50
2019-02-09T03:02:07.413Z,-1.59
2019-02-09T03:04:37.193Z,-1.57
2019-02-09T03:07:06.981Z,-1.47
2019-02-09T03:09:36.766Z,-1.44
2019-02-09T03:12:06.536Z,-1.46
2019-02-09T03:14:36.337Z,-1.46
2019-02-09T03:17:06.147Z,-1.46
2019-02-09T03:19:35.876Z,-1.48
2019-02-09T03:22:06.512Z,-1.48
2019-02-09T03:24:36.319Z,-1.45
2019-02-09T03:27:06.293Z,-1.52
2019-02-09T03:29:36.074Z,-1.53
2019-02-09T03:32:05.823Z,-1.51
2019-02-09T03:34:35.647Z,-1.56
2019-02-09T03:37:05.571Z,-1.60
2019-02-09T03:39:35.397Z,-1.64
2019-02-09T03:42:05.766Z,-1.66
2019-02-09T03:44:35.572Z,-1.66
2019-02-09T03:47:05.525Z,-1.65
2019-02-09T03:49:35.331Z,-1.66
2019-02-09T03:52:05.251Z,-1.77
2019-02-09T03:54:35.317Z,-1.80
2019-02-09T03:57:05.275Z,-1.79
2019-02-09T03:59:35.069Z,-1.80
2019-02-09T04:02:05.082Z,-1.92
2019-02-09T04:04:35.913Z,-1.91
2019-02-09T04:07:06.165Z,-1.86
2019-02-09T04:09:35.999Z,-1.88
2019-02-09T04:12:05.758Z,-1.85
2019-02-09T04:14:36.952Z,-1.75
2019-02-09T04:17:06.754Z,-1.79
2019-02-09T04:19:36.538Z,-1.83
2019-02-09T04:22:06.236Z,-1.81
2019-02-09T04:24:36.023Z,-1.80
2019-02-09T04:27:08.002Z,-1.77
2019-02-09T04:29:37.779Z,-1.73
2019-02-09T04:32:07.761Z,-1.70
2019-02-09T04:34:37.561Z,-1.72
2019-02-09T04:37:07.342Z,-1.73
2019-02-09T04:39:37.135Z,-1.76
2019-02-09T04:42:06.845Z,-1.76
2019-02-09T04:44:36.633Z,-1.73
2019-02-09T04:47:06.415Z,-1.70
2019-02-09T04:49:36.193Z,-1.62
2019-02-09T04:52:06.051Z,-1.60
2019-02-09T04:54:35.844Z,-1.58
2019-02-09T04:57:05.821Z,-1.58
2019-02-09T04:59:35.612Z,-1.54
2019-02-09T05:02:05.586Z,-1.53
2019-02-09T05:04:37.032Z,-1.54
2019-02-09T05:07:06.893Z,-1.58
2019-02-09T05:09:36.693Z,-1.67
2019-02-09T05:12:06.491Z,-1.74
2019-02-09T05:14:36.279Z,-1.72
2019-02-09T05:17:06.058Z,-1.75
2019-02-09T05:19:35.866Z,-1.74
2019-02-09T05:22:05.851Z,-1.71
2019-02-09T05:24:35.629Z,-1.67
2019-02-09T05:27:05.476Z,-1.66
2019-02-09T05:29:35.242Z,-1.68
2019-02-09T05:32:05.279Z,-1.70
2019-02-09T05:34:35.047Z,-1.69
2019-02-09T05:37:05.316Z,-1.65
2019-02-09T05:39:35.132Z,-1.62
2019-02-09T05:42:05.089Z,-1.56
2019-02-09T05:44:37.576Z,-1.56
2019-02-09T05:47:07.337Z,-1.55
2019-02-09T05:49:37.119Z,-1.52
2019-02-09T05:52:07.381Z,-1.52
2019-02-09T05:54:37.509Z,-1.50
2019-02-09T05:57:07.385Z,-1.49
2019-02-09T05:59:37.193Z,-1.48
2019-02-09T06:02:06.979Z,-1.47
2019-02-09T06:04:36.768Z,-1.50
2019-02-09T06:07:06.726Z,-1.52
2019-02-09T06:09:38.290Z,-1.06
2019-02-09T06:12:08.240Z,1.21
2019-02-09T06:14:38.025Z,1.78
2019-02-09T06:17:07.811Z,1.26
2019-02-09T06:19:37.590Z,0.83
2019-02-09T06:22:07.369Z,2.16
2019-02-09T06:24:37.115Z,2.16
2019-02-09T06:27:06.884Z,1.80
2019-02-09T06:29:36.707Z,0.83
2019-02-09T06:32:06.473Z,0.37
2019-02-09T06:34:36.334Z,-0.31
2019-02-09T06:37:06.081Z,-0.31
2019-02-09T06:39:35.901Z,-0.37
2019-02-09T06:42:05.696Z,-0.46
2019-02-09T06:44:35.463Z,-0.59
2019-02-09T06:47:05.171Z,-0.59
2019-02-09T06:49:35.035Z,-0.61
2019-02-09T06:52:04.875Z,-0.82
2019-02-09T06:54:34.656Z,-0.90
2019-02-09T06:57:04.438Z,-1.07
2019-02-09T06:59:34.232Z,-1.17
2019-02-09T07:02:04.311Z,-1.14
2019-02-09T07:04:34.928Z,-1.10
2019-02-09T07:07:04.877Z,-1.10
2019-02-09T07:09:34.665Z,-0.87
2019-02-09T07:12:04.435Z,-0.90
2019-02-09T07:14:34.256Z,-0.90
2019-02-09T07:17:04.143Z,-0.74
2019-02-09T07:19:34.755Z,-0.60
2019-02-09T07:22:04.517Z,-0.39
2019-02-09T07:24:34.327Z,-0.31
2019-02-09T07:27:04.124Z,-0.04
2019-02-09T07:29:34.731Z,0.07
2019-02-09T07:32:05.075Z,0.06
2019-02-09T07:34:34.844Z,0.06
2019-02-09T07:37:04.593Z,0.15
2019-02-09T07:39:35.039Z,0.15
2019-02-09T07:42:04.887Z,0.32
2019-02-09T07:44:34.639Z,0.32
2019-02-09T07:47:04.378Z,0.37
2019-02-09T07:49:34.200Z,0.37
2019-02-09T07:52:03.777Z,0.36
2019-02-09T07:54:34.626Z,0.53
2019-02-09T07:57:04.387Z,0.53
2019-02-09T07:59:34.149Z,0.76
2019-02-09T08:02:04.837Z,0.76
2019-02-09T08:04:37.827Z,0.54
2019-02-09T08:07:07.583Z,0.46
2019-02-09T08:09:37.399Z,0.49
2019-02-09T08:12:07.155Z,0.61
2019-02-09T08:14:37.123Z,0.61
2019-02-09T08:17:07.680Z,0.79
2019-02-09T08:19:37.471Z,1.00
2019-02-09T08:22:07.299Z,1.31
2019-02-09T08:24:37.087Z,1.62
2019-02-09T08:27:06.805Z,1.98
2019-02-09T08:29:37.547Z,2.24
2019-02-09T08:32:12.629Z,2.44
2019-02-09T08:34:38.670Z,2.66
2019-02-09T08:37:08.439Z,2.93
2019-02-09T08:39:38.228Z,3.32
2019-02-09T08:42:07.965Z,3.64
2019-02-09T08:44:37.610Z,4.05
2019-02-09T08:47:08.001Z,4.38
2019-02-09T08:49:38.795Z,4.77
2019-02-09T08:52:08.583Z,5.04
2019-02-09T08:54:38.377Z,5.18
2019-02-09T08:57:09.012Z,5.40
2019-02-09T08:59:44.768Z,5.65
2019-02-09T09:02:20.478Z,5.50
2019-02-09T09:04:46.864Z,5.24
2019-02-09T09:07:16.669Z,5.07
2019-02-09T09:09:47.159Z,4.89
2019-02-09T09:12:18.991Z,4.96
2019-02-09T09:14:51.734Z,4.99
2019-02-09T09:17:22.366Z,4.99
2019-02-09T09:19:52.196Z,5.13
2019-02-09T09:22:22.102Z,5.25
2019-02-09T09:24:52.200Z,5.27
2019-02-09T09:27:23.435Z,5.71
2019-02-09T09:29:56.259Z,5.76
2019-02-09T09:32:28.876Z,5.82
2019-02-09T09:34:59.779Z,5.77
2019-02-09T09:37:29.599Z,5.82
2019-02-09T09:39:59.431Z,5.73
2019-02-09T09:42:29.214Z,5.62
2019-02-09T09:44:58.976Z,5.50
2019-02-09T09:47:28.777Z,5.28
2019-02-09T09:50:04.046Z,5.20
2019-02-09T09:52:34.345Z,5.20
2019-02-09T09:55:05.437Z,4.50
2019-02-09T09:57:35.246Z,5.34
2019-02-09T10:00:10.904Z,5.37
2019-02-09T10:02:40.664Z,5.35
2019-02-09T10:05:10.661Z,5.23
2019-02-09T10:07:40.428Z,5.20
2019-02-09T10:10:13.313Z,5.33
2019-02-09T10:12:43.121Z,5.68
2019-02-09T10:15:20.352Z,6.05
2019-02-09T10:17:50.322Z,6.23
2019-02-09T10:20:22.508Z,6.46
2019-02-09T10:22:52.827Z,6.48
2019-02-09T10:25:22.595Z,6.55
2019-02-09T10:27:54.729Z,6.62
2019-02-09T10:30:30.192Z,6.59
2019-02-09T10:33:00.085Z,6.46
2019-02-09T10:35:29.933Z,6.46
2019-02-09T10:37:59.646Z,6.56
2019-02-09T10:40:38.916Z,6.62
2019-02-09T10:43:08.895Z,6.72
2019-02-09T10:45:38.802Z,6.78
2019-02-09T10:48:10.111Z,6.85
2019-02-09T10:50:42.410Z,6.89
2019-02-09T10:53:13.265Z,6.90
2019-02-09T10:55:43.067Z,6.95
2019-02-09T10:58:13.041Z,6.92
2019-02-09T11:00:55.756Z,6.96
2019-02-09T11:03:25.771Z,7.02
2019-02-09T11:05:56.432Z,7.02
2019-02-09T11:08:26.466Z,7.00
2019-02-09T11:10:56.196Z,6.92
2019-02-09T11:13:26.076Z,6.91
2019-02-09T11:15:56.091Z,7.01
2019-02-09T11:18:25.805Z,6.99
2019-02-09T11:20:55.627Z,7.01
2019-02-09T11:23:25.432Z,7.05
2019-02-09T11:25:58.366Z,7.09
2019-02-09T11:28:29.264Z,7.12
2019-02-09T11:30:59.014Z,7.22
2019-02-09T11:33:28.802Z,7.26
2019-02-09T11:36:00.163Z,7.34
2019-02-09T11:38:30.104Z,7.39
2019-02-09T11:40:59.997Z,7.39
2019-02-09T11:43:30.512Z,7.35
2019-02-09T11:46:00.410Z,7.27
2019-02-09T11:48:30.230Z,7.18
2019-02-09T11:51:00.153Z,7.13
2019-02-09T11:53:32.304Z,7.13
2019-02-09T11:56:02.190Z,7.08
2019-02-09T11:58:31.771Z,7.12
2019-02-09T12:01:02.460Z,7.12
2019-02-09T12:03:32.237Z,7.18
2019-02-09T12:06:03.682Z,7.20
2019-02-09T12:08:34.225Z,7.20
2019-02-09T12:11:04.316Z,7.21
2019-02-09T12:13:34.257Z,7.19
2019-02-09T12:16:04.906Z,7.21
2019-02-09T12:18:35.345Z,7.18
2019-02-09T12:21:06.253Z,7.18
2019-02-09T12:23:36.066Z,7.22
2019-02-09T12:26:05.919Z,7.25
2019-02-09T12:28:36.317Z,7.35
2019-02-09T12:31:06.124Z,7.46
2019-02-09T12:33:36.010Z,7.52
2019-02-09T12:36:06.004Z,7.56
2019-02-09T12:38:35.839Z,7.59
2019-02-09T12:41:07.487Z,7.67
2019-02-09T12:43:39.725Z,7.56
2019-02-09T12:46:12.810Z,7.53
2019-02-09T12:48:44.828Z,7.51
2019-02-09T12:51:18.278Z,7.57
2019-02-09T12:53:49.211Z,7.64
2019-02-09T12:56:19.158Z,7.70
2019-02-09T12:58:49.085Z,7.97
2019-02-09T13:01:19.458Z,7.91
2019-02-09T13:03:49.288Z,8.02
2019-02-09T13:06:19.054Z,7.99
2019-02-09T13:08:48.841Z,7.97
2019-02-09T13:11:18.689Z,7.91
2019-02-09T13:13:48.492Z,7.86
2019-02-09T13:16:18.251Z,7.82
2019-02-09T13:18:48.034Z,7.81
2019-02-09T13:21:21.543Z,7.85
2019-02-09T13:23:51.386Z,8.05
2019-02-09T13:26:23.818Z,8.01
2019-02-09T13:28:53.852Z,8.15
2019-02-09T13:31:24.342Z,8.15
2019-02-09T13:33:55.060Z,8.13
2019-02-09T13:36:24.860Z,8.08
2019-02-09T13:38:54.646Z,8.05
2019-02-09T13:41:25.510Z,8.02
2019-02-09T13:43:55.384Z,8.04
2019-02-09T13:46:26.221Z,8.04
2019-02-09T13:48:57.497Z,8.00
2019-02-09T13:51:27.426Z,7.96
2019-02-09T13:53:57.163Z,7.90
2019-02-09T13:56:26.976Z,7.87
2019-02-09T13:58:56.886Z,7.94
2019-02-09T14:01:26.923Z,7.86
2019-02-09T14:03:56.699Z,6.95
2019-02-09T14:06:27.012Z,7.77
2019-02-09T14:08:57.571Z,7.71
2019-02-09T14:11:27.313Z,7.66
2019-02-09T14:13:57.116Z,7.65
2019-02-09T14:16:27.890Z,7.64
2019-02-09T14:18:59.272Z,7.60
2019-02-09T14:21:29.027Z,7.55
2019-02-09T14:23:58.960Z,7.52
2019-02-09T14:26:28.867Z,7.52
2019-02-09T14:28:58.683Z,7.75
2019-02-09T14:31:28.461Z,7.93
2019-02-09T14:33:58.278Z,7.90
2019-02-09T14:36:28.111Z,7.85
2019-02-09T14:38:57.899Z,7.70
2019-02-09T14:41:27.726Z,7.60
2019-02-09T14:43:57.665Z,7.63
2019-02-09T14:46:27.450Z,7.56
2019-02-09T14:48:57.231Z,7.50
2019-02-09T14:51:26.985Z,7.43
2019-02-09T14:53:56.782Z,7.35
2019-02-09T14:56:26.582Z,7.27
2019-02-09T14:58:56.453Z,7.23
2019-02-09T15:01:26.280Z,7.18
2019-02-09T15:04:02.682Z,7.17
2019-02-09T15:06:27.510Z,7.16
2019-02-09T15:08:57.279Z,7.14
2019-02-09T15:11:27.008Z,7.11
2019-02-09T15:13:56.755Z,7.07
2019-02-09T15:16:28.830Z,7.03
2019-02-09T15:18:58.549Z,6.98
2019-02-09T15:21:29.107Z,6.96
2019-02-09T15:23:58.870Z,6.97
2019-02-09T15:26:28.678Z,7.00
2019-02-09T15:28:59.158Z,7.00
2019-02-09T15:31:29.285Z,6.98
2019-02-09T15:33:59.157Z,6.95
2019-02-09T15:36:29.881Z,6.89
2019-02-09T15:39:03.907Z,6.83
2019-02-09T15:41:33.948Z,6.75
2019-02-09T15:44:05.392Z,6.65
2019-02-09T15:46:35.314Z,6.58
2019-02-09T15:49:05.401Z,6.51
2019-02-09T15:51:35.284Z,5.66
2019-02-09T15:54:05.174Z,6.30
2019-02-09T15:56:35.229Z,6.20
2019-02-09T15:59:06.939Z,6.12
2019-02-09T16:01:36.744Z,6.09
2019-02-09T16:04:06.663Z,6.01
2019-02-09T16:06:36.407Z,5.91
2019-02-09T16:09:07.731Z,5.80
2019-02-09T16:11:37.543Z,5.71
2019-02-09T16:14:07.171Z,5.70
2019-02-09T16:16:37.163Z,5.66
2019-02-09T16:19:07.036Z,5.60
2019-02-09T16:21:36.638Z,5.53
2019-02-09T16:24:06.563Z,5.47
2019-02-09T16:26:36.399Z,5.41
2019-02-09T16:29:06.174Z,5.36
2019-02-09T16:31:36.130Z,5.36
2019-02-09T16:34:06.440Z,5.32
2019-02-09T16:36:36.276Z,5.32
2019-02-09T16:39:08.169Z,5.28
2019-02-09T16:41:39.604Z,5.68
2019-02-09T16:44:09.487Z,6.49
2019-02-09T16:46:39.371Z,6.00
2019-02-09T16:49:09.143Z,5.61
2019-02-09T16:51:38.896Z,5.37
2019-02-09T16:54:08.717Z,5.15
2019-02-09T16:56:38.587Z,4.97
2019-02-09T16:59:09.378Z,4.84
2019-02-09T17:01:39.159Z,4.72
2019-02-09T17:04:08.946Z,4.67
2019-02-09T17:06:38.772Z,4.60
2019-02-09T17:09:09.127Z,4.51
2019-02-09T17:11:38.907Z,4.44
2019-02-09T17:14:08.728Z,4.37
2019-02-09T17:16:40.115Z,4.29
2019-02-09T17:19:09.947Z,4.23
2019-02-09T17:21:41.097Z,4.24
2019-02-09T17:24:10.889Z,4.22
2019-02-09T17:26:40.666Z,4.16
2019-02-09T17:29:10.480Z,4.17
2019-02-09T17:31:41.251Z,4.17
2019-02-09T17:34:11.527Z,4.16
2019-02-09T17:36:42.480Z,4.13
2019-02-09T17:39:14.096Z,4.08
2019-02-09T17:41:44.036Z,4.04
2019-02-09T17:44:13.870Z,4.03
2019-02-09T17:46:43.756Z,4.06
2019-02-09T17:49:14.551Z,4.03
2019-02-09T17:51:44.361Z,3.97
2019-02-09T17:54:14.094Z,3.88
2019-02-09T17:56:43.874Z,3.83
2019-02-09T17:59:13.649Z,3.85
2019-02-09T18:01:46.578Z,3.78
2019-02-09T18:04:16.416Z,3.74
2019-02-09T18:06:46.165Z,3.67
2019-02-09T18:09:15.866Z,3.65
2019-02-09T18:11:47.547Z,3.88
2019-02-09T18:14:17.980Z,4.16
2019-02-09T18:16:47.827Z,4.21
2019-02-09T18:19:17.607Z,4.11
2019-02-09T18:21:47.197Z,3.94
2019-02-09T18:24:16.949Z,3.82
2019-02-09T18:26:47.816Z,4.07
2019-02-09T18:29:17.603Z,4.06
2019-02-09T18:31:47.367Z,3.94
2019-02-09T18:34:17.150Z,3.78
2019-02-09T18:36:46.990Z,3.65
2019-02-09T18:39:16.876Z,3.68
2019-02-09T18:41:46.655Z,3.66
2019-02-09T18:44:16.461Z,3.54
2019-02-09T18:46:46.341Z,3.39
2019-02-09T18:49:16.206Z,3.32
2019-02-09T18:51:46.040Z,3.18
2019-02-09T18:54:15.850Z,3.10
2019-02-09T18:56:45.621Z,4.18
2019-02-09T18:59:15.407Z,4.32
2019-02-09T19:01:45.384Z,3.92
2019-02-09T19:04:15.186Z,3.65
2019-02-09T19:06:45.014Z,3.46
2019-02-09T19:09:16.379Z,3.32
2019-02-09T19:11:47.777Z,2.59
2019-02-09T19:14:17.529Z,3.09
2019-02-09T19:16:48.570Z,2.99
2019-02-09T19:19:18.356Z,2.93
2019-02-09T19:21:49.427Z,3.01
2019-02-09T19:24:19.406Z,3.06
2019-02-09T19:26:49.186Z,2.97
2019-02-09T19:29:21.191Z,3.16
2019-02-09T19:31:51.224Z,3.40
2019-02-09T19:34:22.553Z,3.38
2019-02-09T19:36:54.062Z,3.12
2019-02-09T19:39:24.777Z,3.01
2019-02-09T19:41:56.209Z,3.11
2019-02-09T19:44:25.969Z,3.23
2019-02-09T19:46:55.832Z,3.12
2019-02-09T19:49:25.876Z,3.01
2019-02-09T19:51:55.662Z,2.90
2019-02-09T19:54:25.823Z,2.82
2019-02-09T19:56:55.559Z,2.70
2019-02-09T19:59:25.311Z,2.62
2019-02-09T20:01:55.241Z,2.58
2019-02-09T20:04:24.990Z,2.56
2019-02-09T20:06:54.752Z,2.56
2019-02-09T20:09:24.596Z,2.46
2019-02-09T20:11:54.438Z,2.43
2019-02-09T20:14:24.248Z,2.40
2019-02-09T20:16:54.103Z,2.34
2019-02-09T20:19:23.871Z,2.21
2019-02-09T20:21:53.633Z,2.19
2019-02-09T20:24:23.502Z,2.11
2019-02-09T20:26:53.244Z,2.05
2019-02-09T20:29:23.067Z,2.06
2019-02-09T20:31:52.875Z,2.07
2019-02-09T20:34:22.598Z,2.02
2019-02-09T20:36:52.406Z,2.01
2019-02-09T20:39:22.180Z,1.93
2019-02-09T20:41:51.959Z,1.86
2019-02-09T20:44:21.755Z,2.24
2019-02-09T20:46:51.594Z,2.18
2019-02-09T20:49:21.364Z,2.05
2019-02-09T20:51:51.125Z,2.21
2019-02-09T20:54:20.919Z,2.17
2019-02-09T20:56:50.722Z,2.09
2019-02-09T20:59:20.655Z,1.96
2019-02-09T21:01:50.499Z,1.85
2019-02-09T21:04:20.253Z,1.74
2019-02-09T21:06:50.017Z,1.61
2019-02-09T21:09:19.828Z,1.43
2019-02-09T21:11:50.142Z,1.43
2019-02-09T21:14:19.955Z,1.45
2019-02-09T21:16:51.796Z,1.45
2019-02-09T21:19:21.416Z,1.45
2019-02-09T21:21:51.386Z,1.45
2019-02-09T21:24:21.455Z,1.42
2019-02-09T21:26:52.404Z,1.43
2019-02-09T21:29:23.091Z,1.41
2019-02-09T21:31:53.162Z,1.41
2019-02-09T21:34:22.942Z,1.46
2019-02-09T21:36:52.742Z,1.53
2019-02-09T21:39:22.612Z,1.51
2019-02-09T21:41:52.473Z,1.51
2019-02-09T21:44:23.293Z,1.45
2019-02-09T21:46:53.335Z,1.32
2019-02-09T21:49:23.179Z,1.12
2019-02-09T21:51:54.540Z,1.05
2019-02-09T21:54:24.352Z,1.05
2019-02-09T21:56:54.104Z,0.95
2019-02-09T21:59:24.323Z,0.93
2019-02-09T22:01:54.179Z,1.02
2019-02-09T22:04:23.937Z,0.98
2019-02-09T22:06:53.662Z,0.95
2019-02-09T22:09:23.562Z,0.97
2019-02-09T22:11:53.405Z,0.96
2019-02-09T22:14:25.061Z,0.94
2019-02-09T22:16:55.759Z,0.95
2019-02-09T22:19:25.645Z,0.84
2019-02-09T22:21:55.808Z,0.80
2019-02-09T22:24:25.769Z,0.80
2019-02-09T22:26:55.547Z,0.78
2019-02-09T22:29:25.293Z,0.76
2019-02-09T22:31:55.055Z,0.72
2019-02-09T22:34:24.837Z,0.73
2019-02-09T22:36:54.705Z,0.68
2019-02-09T22:39:25.390Z,0.65
2019-02-09T22:41:55.175Z,0.65
2019-02-09T22:44:24.999Z,0.77
2019-02-09T22:46:56.013Z,0.67
2019-02-09T22:49:25.805Z,0.42
2019-02-09T22:51:55.517Z,0.48
2019-02-09T22:54:25.306Z,0.58
2019-02-09T22:56:55.803Z,0.58
2019-02-09T22:59:25.515Z,0.62
2019-02-09T23:01:55.317Z,0.71
2019-02-09T23:04:32.300Z,0.79
2019-02-09T23:07:03.805Z,0.95
2019-02-09T23:09:33.629Z,0.85
2019-02-09T23:12:03.437Z,0.77
2019-02-09T23:14:33.197Z,0.76
2019-02-09T23:17:02.999Z,0.74
2019-02-09T23:19:32.801Z,0.72
2019-02-09T23:22:02.680Z,0.71
2019-02-09T23:24:32.493Z,0.73
2019-02-09T23:27:02.303Z,0.75
2019-02-09T23:29:32.166Z,0.71
2019-02-09T23:32:02.103Z,0.72
2019-02-09T23:34:31.857Z,0.69
2019-02-09T23:37:01.617Z,0.67
2019-02-09T23:39:31.453Z,0.67
2019-02-09T23:42:02.157Z,0.59
2019-02-09T23:44:32.084Z,0.52
2019-02-09T23:47:01.883Z,0.53
2019-02-09T23:49:31.636Z,0.50
2019-02-09T23:52:01.432Z,0.51
2019-02-09T23:54:31.216Z,0.52
2019-02-09T23:57:00.998Z,0.50
2019-02-09T23:59:31.012Z,0.49
